sensor_id;sensor_type;location;lat;lon;timestamp;P1;durP1;ratioP1;P2;durP2;ratioP2
74777;SDS011;63298;53.164;8.610;2023-11-21T00:00:58;20.27;;;6.68;;
74777;SDS011;63298;53.164;8.610;2023-11-21T00:03:23;17.33;;;4.40;;
74777;SDS011;63298;53.164;8.610;2023-11-21T00:05:48;15.18;;;5.00;;
74777;SDS011;63298;53.164;8.610;2023-11-21T00:08:14;18.40;;;5.55;;
74777;SDS011;63298;53.164;8.610;2023-11-21T00:10:39;16.50;;;4.90;;
74777;SDS011;63298;53.164;8.610;2023-11-21T00:13:04;16.60;;;5.15;;
74777;SDS011;63298;53.164;8.610;2023-11-21T00:15:30;18.83;;;5.13;;
74777;SDS011;63298;53.164;8.610;2023-11-21T00:17:57;13.85;;;5.38;;
74777;SDS011;63298;53.164;8.610;2023-11-21T00:20:23;11.55;;;5.32;;
74777;SDS011;63298;53.164;8.610;2023-11-21T00:22:48;16.63;;;5.28;;
74777;SDS011;63298;53.164;8.610;2023-11-21T00:25:13;15.95;;;5.40;;
74777;SDS011;63298;53.164;8.610;2023-11-21T00:27:39;16.50;;;5.38;;
74777;SDS011;63298;53.164;8.610;2023-11-21T00:30:04;14.57;;;5.63;;
74777;SDS011;63298;53.164;8.610;2023-11-21T00:32:30;17.80;;;5.43;;
74777;SDS011;63298;53.164;8.610;2023-11-21T00:34:55;16.10;;;5.40;;
74777;SDS011;63298;53.164;8.610;2023-11-21T00:37:21;20.02;;;6.38;;
74777;SDS011;63298;53.164;8.610;2023-11-21T00:39:46;19.60;;;6.10;;
74777;SDS011;63298;53.164;8.610;2023-11-21T00:42:11;12.70;;;4.57;;
74777;SDS011;63298;53.164;8.610;2023-11-21T00:44:37;17.60;;;5.13;;
74777;SDS011;63298;53.164;8.610;2023-11-21T00:47:03;15.82;;;6.05;;
74777;SDS011;63298;53.164;8.610;2023-11-21T00:49:28;10.32;;;5.10;;
74777;SDS011;63298;53.164;8.610;2023-11-21T00:51:54;15.23;;;5.32;;
74777;SDS011;63298;53.164;8.610;2023-11-21T00:54:19;14.07;;;4.97;;
74777;SDS011;63298;53.164;8.610;2023-11-21T00:56:44;13.98;;;6.07;;
74777;SDS011;63298;53.164;8.610;2023-11-21T00:59:10;12.35;;;5.03;;
74777;SDS011;63298;53.164;8.610;2023-11-21T01:01:35;13.45;;;5.55;;
74777;SDS011;63298;53.164;8.610;2023-11-21T01:04:00;16.63;;;5.05;;
74777;SDS011;63298;53.164;8.610;2023-11-21T01:06:25;16.93;;;4.67;;
74777;SDS011;63298;53.164;8.610;2023-11-21T01:08:51;14.43;;;4.65;;
74777;SDS011;63298;53.164;8.610;2023-11-21T01:11:16;16.92;;;5.10;;
74777;SDS011;63298;53.164;8.610;2023-11-21T01:13:41;9.13;;;4.60;;
74777;SDS011;63298;53.164;8.610;2023-11-21T01:16:07;10.27;;;5.28;;
74777;SDS011;63298;53.164;8.610;2023-11-21T01:18:33;12.07;;;4.65;;
74777;SDS011;63298;53.164;8.610;2023-11-21T01:20:58;9.43;;;4.80;;
74777;SDS011;63298;53.164;8.610;2023-11-21T01:23:24;10.85;;;4.68;;
74777;SDS011;63298;53.164;8.610;2023-11-21T01:25:49;9.25;;;4.47;;
74777;SDS011;63298;53.164;8.610;2023-11-21T01:28:14;8.77;;;4.35;;
74777;SDS011;63298;53.164;8.610;2023-11-21T01:30:40;7.63;;;4.53;;
74777;SDS011;63298;53.164;8.610;2023-11-21T01:33:05;7.97;;;4.07;;
74777;SDS011;63298;53.164;8.610;2023-11-21T01:35:30;8.55;;;4.28;;
74777;SDS011;63298;53.164;8.610;2023-11-21T01:37:56;9.20;;;4.23;;
74777;SDS011;63298;53.164;8.610;2023-11-21T01:40:21;7.18;;;3.53;;
74777;SDS011;63298;53.164;8.610;2023-11-21T01:42:46;13.70;;;4.25;;
74777;SDS011;63298;53.164;8.610;2023-11-21T01:45:12;11.73;;;4.20;;
74777;SDS011;63298;53.164;8.610;2023-11-21T01:47:38;13.10;;;4.00;;
74777;SDS011;63298;53.164;8.610;2023-11-21T01:50:04;7.97;;;3.63;;
74777;SDS011;63298;53.164;8.610;2023-11-21T01:52:32;7.88;;;3.83;;
74777;SDS011;63298;53.164;8.610;2023-11-21T01:55:02;10.93;;;3.92;;
74777;SDS011;63298;53.164;8.610;2023-11-21T01:57:29;8.20;;;3.85;;
74777;SDS011;63298;53.164;8.610;2023-11-21T01:59:55;10.75;;;4.00;;
74777;SDS011;63298;53.164;8.610;2023-11-21T02:02:23;8.15;;;3.30;;
74777;SDS011;63298;53.164;8.610;2023-11-21T02:04:48;16.67;;;4.40;;
74777;SDS011;63298;53.164;8.610;2023-11-21T02:07:13;13.88;;;4.43;;
74777;SDS011;63298;53.164;8.610;2023-11-21T02:09:39;11.60;;;4.35;;
74777;SDS011;63298;53.164;8.610;2023-11-21T02:12:07;10.60;;;4.60;;
74777;SDS011;63298;53.164;8.610;2023-11-21T02:14:33;8.32;;;4.43;;
74777;SDS011;63298;53.164;8.610;2023-11-21T02:16:58;8.80;;;3.97;;
74777;SDS011;63298;53.164;8.610;2023-11-21T02:19:23;11.23;;;4.55;;
74777;SDS011;63298;53.164;8.610;2023-11-21T02:21:49;15.52;;;5.22;;
74777;SDS011;63298;53.164;8.610;2023-11-21T02:24:15;11.32;;;5.20;;
74777;SDS011;63298;53.164;8.610;2023-11-21T02:26:40;12.13;;;5.53;;
74777;SDS011;63298;53.164;8.610;2023-11-21T02:29:06;9.70;;;5.20;;
74777;SDS011;63298;53.164;8.610;2023-11-21T02:31:31;11.85;;;5.57;;
74777;SDS011;63298;53.164;8.610;2023-11-21T02:33:56;10.80;;;5.18;;
74777;SDS011;63298;53.164;8.610;2023-11-21T02:36:22;11.50;;;5.30;;
74777;SDS011;63298;53.164;8.610;2023-11-21T02:38:47;11.75;;;5.30;;
74777;SDS011;63298;53.164;8.610;2023-11-21T02:41:12;9.83;;;5.37;;
74777;SDS011;63298;53.164;8.610;2023-11-21T02:43:38;14.18;;;6.00;;
74777;SDS011;63298;53.164;8.610;2023-11-21T02:46:03;12.30;;;5.93;;
74777;SDS011;63298;53.164;8.610;2023-11-21T02:48:28;10.27;;;5.22;;
74777;SDS011;63298;53.164;8.610;2023-11-21T02:50:54;14.80;;;6.20;;
74777;SDS011;63298;53.164;8.610;2023-11-21T02:53:19;13.02;;;5.95;;
74777;SDS011;63298;53.164;8.610;2023-11-21T02:55:44;13.07;;;6.53;;
74777;SDS011;63298;53.164;8.610;2023-11-21T02:58:10;16.00;;;7.35;;
74777;SDS011;63298;53.164;8.610;2023-11-21T03:00:37;16.08;;;7.55;;
74777;SDS011;63298;53.164;8.610;2023-11-21T03:03:02;18.33;;;7.47;;
74777;SDS011;63298;53.164;8.610;2023-11-21T03:05:29;13.73;;;7.60;;
74777;SDS011;63298;53.164;8.610;2023-11-21T03:07:54;16.13;;;6.80;;
74777;SDS011;63298;53.164;8.610;2023-11-21T03:10:19;16.65;;;7.75;;
74777;SDS011;63298;53.164;8.610;2023-11-21T03:12:45;18.40;;;8.35;;
74777;SDS011;63298;53.164;8.610;2023-11-21T03:15:10;18.27;;;8.20;;
74777;SDS011;63298;53.164;8.610;2023-11-21T03:17:35;18.88;;;8.63;;
74777;SDS011;63298;53.164;8.610;2023-11-21T03:20:01;21.58;;;8.40;;
74777;SDS011;63298;53.164;8.610;2023-11-21T03:22:26;17.63;;;9.00;;
74777;SDS011;63298;53.164;8.610;2023-11-21T03:24:52;18.42;;;8.15;;
74777;SDS011;63298;53.164;8.610;2023-11-21T03:27:17;21.73;;;8.68;;
74777;SDS011;63298;53.164;8.610;2023-11-21T03:29:42;19.52;;;8.07;;
74777;SDS011;63298;53.164;8.610;2023-11-21T03:32:07;20.98;;;8.70;;
74777;SDS011;63298;53.164;8.610;2023-11-21T03:34:33;24.17;;;9.05;;
74777;SDS011;63298;53.164;8.610;2023-11-21T03:36:59;22.02;;;8.65;;
74777;SDS011;63298;53.164;8.610;2023-11-21T03:39:25;15.85;;;8.00;;
74777;SDS011;63298;53.164;8.610;2023-11-21T03:41:51;18.83;;;8.68;;
74777;SDS011;63298;53.164;8.610;2023-11-21T03:44:16;20.38;;;9.43;;
74777;SDS011;63298;53.164;8.610;2023-11-21T03:46:41;23.58;;;10.07;;
74777;SDS011;63298;53.164;8.610;2023-11-21T03:49:07;24.65;;;9.57;;
74777;SDS011;63298;53.164;8.610;2023-11-21T03:51:32;23.67;;;9.68;;
74777;SDS011;63298;53.164;8.610;2023-11-21T03:53:58;20.88;;;9.27;;
74777;SDS011;63298;53.164;8.610;2023-11-21T03:56:23;22.00;;;9.77;;
74777;SDS011;63298;53.164;8.610;2023-11-21T03:58:49;28.73;;;11.05;;
74777;SDS011;63298;53.164;8.610;2023-11-21T04:01:21;22.23;;;10.68;;
74777;SDS011;63298;53.164;8.610;2023-11-21T04:03:47;28.60;;;11.15;;
74777;SDS011;63298;53.164;8.610;2023-11-21T04:06:13;26.35;;;10.02;;
74777;SDS011;63298;53.164;8.610;2023-11-21T04:08:39;26.55;;;10.73;;
74777;SDS011;63298;53.164;8.610;2023-11-21T04:11:04;24.48;;;10.57;;
74777;SDS011;63298;53.164;8.610;2023-11-21T04:13:30;20.05;;;10.77;;
74777;SDS011;63298;53.164;8.610;2023-11-21T04:15:55;18.75;;;10.57;;
74777;SDS011;63298;53.164;8.610;2023-11-21T04:18:20;26.75;;;10.32;;
74777;SDS011;63298;53.164;8.610;2023-11-21T04:20:46;20.40;;;10.00;;
74777;SDS011;63298;53.164;8.610;2023-11-21T04:23:11;21.80;;;10.07;;
74777;SDS011;63298;53.164;8.610;2023-11-21T04:25:36;21.83;;;10.40;;
74777;SDS011;63298;53.164;8.610;2023-11-21T04:28:02;21.40;;;11.25;;
74777;SDS011;63298;53.164;8.610;2023-11-21T04:30:29;23.75;;;10.60;;
74777;SDS011;63298;53.164;8.610;2023-11-21T04:32:55;23.85;;;10.95;;
74777;SDS011;63298;53.164;8.610;2023-11-21T04:35:23;23.95;;;11.90;;
74777;SDS011;63298;53.164;8.610;2023-11-21T04:37:49;20.92;;;10.82;;
74777;SDS011;63298;53.164;8.610;2023-11-21T04:40:14;16.58;;;9.07;;
74777;SDS011;63298;53.164;8.610;2023-11-21T04:42:39;16.95;;;9.20;;
74777;SDS011;63298;53.164;8.610;2023-11-21T04:45:05;17.15;;;10.02;;
74777;SDS011;63298;53.164;8.610;2023-11-21T04:47:31;20.67;;;10.15;;
74777;SDS011;63298;53.164;8.610;2023-11-21T04:49:57;16.88;;;8.95;;
74777;SDS011;63298;53.164;8.610;2023-11-21T04:52:22;22.33;;;9.82;;
74777;SDS011;63298;53.164;8.610;2023-11-21T04:54:47;14.82;;;7.78;;
74777;SDS011;63298;53.164;8.610;2023-11-21T04:57:13;16.45;;;8.90;;
74777;SDS011;63298;53.164;8.610;2023-11-21T04:59:38;15.95;;;8.15;;
74777;SDS011;63298;53.164;8.610;2023-11-21T05:02:03;14.27;;;8.23;;
74777;SDS011;63298;53.164;8.610;2023-11-21T05:04:29;13.38;;;7.18;;
74777;SDS011;63298;53.164;8.610;2023-11-21T05:06:54;13.88;;;7.00;;
74777;SDS011;63298;53.164;8.610;2023-11-21T05:09:20;13.57;;;8.43;;
74777;SDS011;63298;53.164;8.610;2023-11-21T05:11:45;15.82;;;7.70;;
74777;SDS011;63298;53.164;8.610;2023-11-21T05:14:11;16.17;;;8.45;;
74777;SDS011;63298;53.164;8.610;2023-11-21T05:16:36;17.90;;;8.32;;
74777;SDS011;63298;53.164;8.610;2023-11-21T05:19:01;16.00;;;8.98;;
74777;SDS011;63298;53.164;8.610;2023-11-21T05:21:27;13.85;;;8.73;;
74777;SDS011;63298;53.164;8.610;2023-11-21T05:23:52;15.00;;;8.10;;
74777;SDS011;63298;53.164;8.610;2023-11-21T05:26:18;17.30;;;8.15;;
74777;SDS011;63298;53.164;8.610;2023-11-21T05:28:43;13.98;;;8.13;;
74777;SDS011;63298;53.164;8.610;2023-11-21T05:31:08;14.88;;;7.80;;
74777;SDS011;63298;53.164;8.610;2023-11-21T05:33:34;12.18;;;7.60;;
74777;SDS011;63298;53.164;8.610;2023-11-21T05:35:59;12.65;;;7.35;;
74777;SDS011;63298;53.164;8.610;2023-11-21T05:38:24;14.07;;;6.75;;
74777;SDS011;63298;53.164;8.610;2023-11-21T05:40:49;10.60;;;5.78;;
74777;SDS011;63298;53.164;8.610;2023-11-21T05:43:15;11.68;;;6.03;;
74777;SDS011;63298;53.164;8.610;2023-11-21T05:45:40;9.90;;;6.03;;
74777;SDS011;63298;53.164;8.610;2023-11-21T05:48:08;11.65;;;6.07;;
74777;SDS011;63298;53.164;8.610;2023-11-21T05:50:34;8.02;;;5.60;;
74777;SDS011;63298;53.164;8.610;2023-11-21T05:52:59;7.63;;;5.10;;
74777;SDS011;63298;53.164;8.610;2023-11-21T05:55:24;7.63;;;5.15;;
74777;SDS011;63298;53.164;8.610;2023-11-21T05:57:50;9.38;;;5.25;;
74777;SDS011;63298;53.164;8.610;2023-11-21T06:00:15;9.63;;;5.25;;
74777;SDS011;63298;53.164;8.610;2023-11-21T06:02:40;8.20;;;4.70;;
74777;SDS011;63298;53.164;8.610;2023-11-21T06:05:07;8.38;;;4.95;;
74777;SDS011;63298;53.164;8.610;2023-11-21T06:07:33;6.95;;;4.80;;
74777;SDS011;63298;53.164;8.610;2023-11-21T06:09:58;10.40;;;4.63;;
74777;SDS011;63298;53.164;8.610;2023-11-21T06:12:24;5.43;;;3.55;;
74777;SDS011;63298;53.164;8.610;2023-11-21T06:14:49;6.50;;;4.13;;
74777;SDS011;63298;53.164;8.610;2023-11-21T06:17:14;4.93;;;3.70;;
74777;SDS011;63298;53.164;8.610;2023-11-21T06:19:40;5.40;;;3.80;;
74777;SDS011;63298;53.164;8.610;2023-11-21T06:22:05;7.28;;;3.78;;
74777;SDS011;63298;53.164;8.610;2023-11-21T06:24:30;5.53;;;3.80;;
74777;SDS011;63298;53.164;8.610;2023-11-21T06:26:56;7.88;;;4.20;;
74777;SDS011;63298;53.164;8.610;2023-11-21T06:29:21;6.45;;;3.67;;
74777;SDS011;63298;53.164;8.610;2023-11-21T06:31:46;7.18;;;4.28;;
74777;SDS011;63298;53.164;8.610;2023-11-21T06:34:12;9.18;;;4.35;;
74777;SDS011;63298;53.164;8.610;2023-11-21T06:36:37;6.60;;;3.25;;
74777;SDS011;63298;53.164;8.610;2023-11-21T06:39:05;8.00;;;3.95;;
74777;SDS011;63298;53.164;8.610;2023-11-21T06:41:31;5.80;;;3.70;;
74777;SDS011;63298;53.164;8.610;2023-11-21T06:43:56;7.05;;;4.15;;
74777;SDS011;63298;53.164;8.610;2023-11-21T06:46:24;7.32;;;3.90;;
74777;SDS011;63298;53.164;8.610;2023-11-21T06:48:49;12.52;;;4.63;;
74777;SDS011;63298;53.164;8.610;2023-11-21T06:51:14;6.35;;;4.35;;
74777;SDS011;63298;53.164;8.610;2023-11-21T06:53:41;7.32;;;4.78;;
74777;SDS011;63298;53.164;8.610;2023-11-21T06:56:16;6.85;;;4.60;;
74777;SDS011;63298;53.164;8.610;2023-11-21T06:58:43;6.60;;;4.38;;
74777;SDS011;63298;53.164;8.610;2023-11-21T07:01:10;8.88;;;4.38;;
74777;SDS011;63298;53.164;8.610;2023-11-21T07:03:35;7.22;;;4.10;;
74777;SDS011;63298;53.164;8.610;2023-11-21T07:06:00;7.75;;;5.03;;
74777;SDS011;63298;53.164;8.610;2023-11-21T07:08:26;8.90;;;4.35;;
74777;SDS011;63298;53.164;8.610;2023-11-21T07:10:51;6.70;;;4.45;;
74777;SDS011;63298;53.164;8.610;2023-11-21T07:13:16;7.07;;;4.80;;
74777;SDS011;63298;53.164;8.610;2023-11-21T07:15:42;7.03;;;4.90;;
74777;SDS011;63298;53.164;8.610;2023-11-21T07:18:07;9.13;;;4.45;;
74777;SDS011;63298;53.164;8.610;2023-11-21T07:20:33;6.78;;;4.22;;
74777;SDS011;63298;53.164;8.610;2023-11-21T07:22:58;8.50;;;4.88;;
74777;SDS011;63298;53.164;8.610;2023-11-21T07:25:23;9.35;;;4.82;;
74777;SDS011;63298;53.164;8.610;2023-11-21T07:27:49;7.80;;;4.80;;
74777;SDS011;63298;53.164;8.610;2023-11-21T07:30:17;11.68;;;4.82;;
74777;SDS011;63298;53.164;8.610;2023-11-21T07:32:42;6.43;;;4.20;;
74777;SDS011;63298;53.164;8.610;2023-11-21T07:35:07;8.15;;;4.38;;
74777;SDS011;63298;53.164;8.610;2023-11-21T07:37:33;7.43;;;4.75;;
74777;SDS011;63298;53.164;8.610;2023-11-21T07:39:58;7.93;;;4.88;;
74777;SDS011;63298;53.164;8.610;2023-11-21T07:42:24;7.47;;;4.88;;
74777;SDS011;63298;53.164;8.610;2023-11-21T07:44:49;8.27;;;5.38;;
74777;SDS011;63298;53.164;8.610;2023-11-21T07:47:14;9.43;;;4.88;;
74777;SDS011;63298;53.164;8.610;2023-11-21T07:49:40;6.97;;;4.72;;
74777;SDS011;63298;53.164;8.610;2023-11-21T07:52:05;10.05;;;5.50;;
74777;SDS011;63298;53.164;8.610;2023-11-21T07:54:31;10.25;;;5.53;;
74777;SDS011;63298;53.164;8.610;2023-11-21T07:56:58;8.10;;;5.25;;
74777;SDS011;63298;53.164;8.610;2023-11-21T07:59:23;12.43;;;5.88;;
74777;SDS011;63298;53.164;8.610;2023-11-21T08:01:49;10.50;;;5.07;;
74777;SDS011;63298;53.164;8.610;2023-11-21T08:04:15;9.20;;;5.43;;
74777;SDS011;63298;53.164;8.610;2023-11-21T08:06:41;7.45;;;5.22;;
74777;SDS011;63298;53.164;8.610;2023-11-21T08:09:06;11.00;;;4.93;;
74777;SDS011;63298;53.164;8.610;2023-11-21T08:11:34;9.48;;;5.65;;
74777;SDS011;63298;53.164;8.610;2023-11-21T08:13:59;8.68;;;4.90;;
74777;SDS011;63298;53.164;8.610;2023-11-21T08:16:25;9.38;;;5.50;;
74777;SDS011;63298;53.164;8.610;2023-11-21T08:18:50;9.35;;;5.35;;
74777;SDS011;63298;53.164;8.610;2023-11-21T08:21:15;12.02;;;6.20;;
74777;SDS011;63298;53.164;8.610;2023-11-21T08:23:41;8.23;;;5.13;;
74777;SDS011;63298;53.164;8.610;2023-11-21T08:26:08;10.00;;;5.78;;
74777;SDS011;63298;53.164;8.610;2023-11-21T08:28:33;7.53;;;4.40;;
74777;SDS011;63298;53.164;8.610;2023-11-21T08:30:58;9.00;;;5.38;;
74777;SDS011;63298;53.164;8.610;2023-11-21T08:33:27;7.95;;;4.80;;
74777;SDS011;63298;53.164;8.610;2023-11-21T08:35:53;8.65;;;5.28;;
74777;SDS011;63298;53.164;8.610;2023-11-21T08:38:18;8.63;;;5.03;;
74777;SDS011;63298;53.164;8.610;2023-11-21T08:40:46;8.40;;;5.07;;
74777;SDS011;63298;53.164;8.610;2023-11-21T08:43:12;10.55;;;5.43;;
74777;SDS011;63298;53.164;8.610;2023-11-21T08:45:37;7.97;;;5.30;;
74777;SDS011;63298;53.164;8.610;2023-11-21T08:48:06;8.02;;;4.97;;
74777;SDS011;63298;53.164;8.610;2023-11-21T08:50:31;9.60;;;5.32;;
74777;SDS011;63298;53.164;8.610;2023-11-21T08:52:57;7.78;;;5.13;;
74777;SDS011;63298;53.164;8.610;2023-11-21T08:55:22;10.55;;;5.35;;
74777;SDS011;63298;53.164;8.610;2023-11-21T08:57:47;9.80;;;5.28;;
74777;SDS011;63298;53.164;8.610;2023-11-21T09:00:13;7.25;;;5.15;;
74777;SDS011;63298;53.164;8.610;2023-11-21T09:02:39;7.95;;;5.22;;
74777;SDS011;63298;53.164;8.610;2023-11-21T09:05:05;10.25;;;4.93;;
74777;SDS011;63298;53.164;8.610;2023-11-21T09:07:30;7.15;;;4.82;;
74777;SDS011;63298;53.164;8.610;2023-11-21T09:09:56;8.05;;;4.80;;
74777;SDS011;63298;53.164;8.610;2023-11-21T09:12:21;8.48;;;4.75;;
74777;SDS011;63298;53.164;8.610;2023-11-21T09:14:47;8.10;;;4.78;;
74777;SDS011;63298;53.164;8.610;2023-11-21T09:17:12;7.22;;;4.32;;
74777;SDS011;63298;53.164;8.610;2023-11-21T09:19:38;8.43;;;5.25;;
74777;SDS011;63298;53.164;8.610;2023-11-21T09:22:04;6.72;;;4.50;;
74777;SDS011;63298;53.164;8.610;2023-11-21T09:24:32;9.07;;;4.88;;
74777;SDS011;63298;53.164;8.610;2023-11-21T09:26:58;7.93;;;4.75;;
74777;SDS011;63298;53.164;8.610;2023-11-21T09:29:24;7.68;;;4.72;;
74777;SDS011;63298;53.164;8.610;2023-11-21T09:31:49;8.88;;;4.93;;
74777;SDS011;63298;53.164;8.610;2023-11-21T09:34:18;6.63;;;4.50;;
74777;SDS011;63298;53.164;8.610;2023-11-21T09:36:47;7.90;;;4.72;;
74777;SDS011;63298;53.164;8.610;2023-11-21T09:39:13;9.02;;;4.95;;
74777;SDS011;63298;53.164;8.610;2023-11-21T09:47:08;7.53;;;4.28;;
74777;SDS011;63298;53.164;8.610;2023-11-21T09:49:39;11.70;;;4.50;;
74777;SDS011;63298;53.164;8.610;2023-11-21T09:52:04;6.45;;;4.10;;
74777;SDS011;63298;53.164;8.610;2023-11-21T09:54:32;9.48;;;5.05;;
74777;SDS011;63298;53.164;8.610;2023-11-21T09:57:00;7.38;;;4.65;;
74777;SDS011;63298;53.164;8.610;2023-11-21T09:59:30;6.20;;;4.38;;
74777;SDS011;63298;53.164;8.610;2023-11-21T10:01:58;6.28;;;4.03;;
74777;SDS011;63298;53.164;8.610;2023-11-21T10:04:24;7.78;;;4.30;;
74777;SDS011;63298;53.164;8.610;2023-11-21T10:06:50;9.13;;;4.35;;
74777;SDS011;63298;53.164;8.610;2023-11-21T10:09:16;8.63;;;4.45;;
74777;SDS011;63298;53.164;8.610;2023-11-21T10:11:42;11.02;;;4.40;;
74777;SDS011;63298;53.164;8.610;2023-11-21T10:14:10;7.70;;;3.78;;
74777;SDS011;63298;53.164;8.610;2023-11-21T10:16:36;6.30;;;4.40;;
74777;SDS011;63298;53.164;8.610;2023-11-21T10:19:03;7.82;;;4.78;;
74777;SDS011;63298;53.164;8.610;2023-11-21T10:21:29;7.35;;;4.38;;
74777;SDS011;63298;53.164;8.610;2023-11-21T10:23:55;7.47;;;4.50;;
74777;SDS011;63298;53.164;8.610;2023-11-21T10:26:20;6.75;;;4.30;;
74777;SDS011;63298;53.164;8.610;2023-11-21T10:29:00;7.70;;;4.55;;
74777;SDS011;63298;53.164;8.610;2023-11-21T10:31:27;7.28;;;4.05;;
74777;SDS011;63298;53.164;8.610;2023-11-21T10:33:53;7.47;;;4.72;;
74777;SDS011;63298;53.164;8.610;2023-11-21T10:36:28;8.98;;;4.57;;
74777;SDS011;63298;53.164;8.610;2023-11-21T10:38:56;7.25;;;4.80;;
74777;SDS011;63298;53.164;8.610;2023-11-21T10:41:22;6.28;;;4.10;;
74777;SDS011;63298;53.164;8.610;2023-11-21T10:43:47;7.18;;;4.55;;
74777;SDS011;63298;53.164;8.610;2023-11-21T10:46:13;5.78;;;3.72;;
74777;SDS011;63298;53.164;8.610;2023-11-21T10:48:40;7.20;;;4.07;;
74777;SDS011;63298;53.164;8.610;2023-11-21T10:51:07;7.03;;;4.25;;
74777;SDS011;63298;53.164;8.610;2023-11-21T10:53:35;8.75;;;4.70;;
74777;SDS011;63298;53.164;8.610;2023-11-21T10:56:05;7.45;;;4.40;;
74777;SDS011;63298;53.164;8.610;2023-11-21T10:58:36;6.75;;;4.18;;
74777;SDS011;63298;53.164;8.610;2023-11-21T11:01:05;5.75;;;3.95;;
74777;SDS011;63298;53.164;8.610;2023-11-21T11:03:32;5.88;;;3.97;;
74777;SDS011;63298;53.164;8.610;2023-11-21T11:05:58;7.10;;;4.40;;
74777;SDS011;63298;53.164;8.610;2023-11-21T11:08:25;7.72;;;4.95;;
74777;SDS011;63298;53.164;8.610;2023-11-21T11:10:52;5.80;;;4.65;;
74777;SDS011;63298;53.164;8.610;2023-11-21T11:13:18;5.95;;;4.38;;
74777;SDS011;63298;53.164;8.610;2023-11-21T11:15:47;7.85;;;3.88;;
74777;SDS011;63298;53.164;8.610;2023-11-21T11:18:12;4.80;;;3.63;;
74777;SDS011;63298;53.164;8.610;2023-11-21T11:20:40;7.80;;;3.35;;
74777;SDS011;63298;53.164;8.610;2023-11-21T11:29:01;7.25;;;3.95;;
74777;SDS011;63298;53.164;8.610;2023-11-21T11:32:21;5.82;;;4.20;;
74777;SDS011;63298;53.164;8.610;2023-11-21T11:34:48;7.13;;;3.90;;
74777;SDS011;63298;53.164;8.610;2023-11-21T11:37:25;6.80;;;3.90;;
74777;SDS011;63298;53.164;8.610;2023-11-21T11:39:51;6.53;;;3.67;;
74777;SDS011;63298;53.164;8.610;2023-11-21T11:42:17;6.63;;;3.70;;
74777;SDS011;63298;53.164;8.610;2023-11-21T11:47:13;4.00;;;3.20;;
74777;SDS011;63298;53.164;8.610;2023-11-21T11:49:45;4.65;;;3.20;;
74777;SDS011;63298;53.164;8.610;2023-11-21T11:55:01;4.32;;;3.13;;
74777;SDS011;63298;53.164;8.610;2023-11-21T11:57:34;4.72;;;3.17;;
74777;SDS011;63298;53.164;8.610;2023-11-21T12:00:09;5.22;;;3.05;;
74777;SDS011;63298;53.164;8.610;2023-11-21T12:02:45;5.07;;;2.92;;
74777;SDS011;63298;53.164;8.610;2023-11-21T12:05:18;4.72;;;3.15;;
74777;SDS011;63298;53.164;8.610;2023-11-21T12:10:18;4.00;;;2.92;;
74777;SDS011;63298;53.164;8.610;2023-11-21T12:13:03;4.43;;;3.10;;
74777;SDS011;63298;53.164;8.610;2023-11-21T12:15:31;3.78;;;2.95;;
74777;SDS011;63298;53.164;8.610;2023-11-21T12:17:57;3.53;;;3.03;;
74777;SDS011;63298;53.164;8.610;2023-11-21T12:20:24;4.70;;;3.00;;
74777;SDS011;63298;53.164;8.610;2023-11-21T12:22:53;3.40;;;2.90;;
74777;SDS011;63298;53.164;8.610;2023-11-21T12:25:19;9.25;;;3.03;;
74777;SDS011;63298;53.164;8.610;2023-11-21T12:27:45;5.82;;;3.00;;
74777;SDS011;63298;53.164;8.610;2023-11-21T12:30:12;12.13;;;3.25;;
74777;SDS011;63298;53.164;8.610;2023-11-21T12:32:38;4.68;;;2.58;;
74777;SDS011;63298;53.164;8.610;2023-11-21T12:35:05;4.47;;;2.65;;
74777;SDS011;63298;53.164;8.610;2023-11-21T12:37:30;3.83;;;2.65;;
74777;SDS011;63298;53.164;8.610;2023-11-21T12:39:56;4.03;;;2.72;;
74777;SDS011;63298;53.164;8.610;2023-11-21T12:42:22;8.13;;;2.80;;
74777;SDS011;63298;53.164;8.610;2023-11-21T12:44:47;4.68;;;2.45;;
74777;SDS011;63298;53.164;8.610;2023-11-21T12:47:15;3.17;;;2.50;;
74777;SDS011;63298;53.164;8.610;2023-11-21T12:52:08;3.58;;;2.45;;
74777;SDS011;63298;53.164;8.610;2023-11-21T12:54:33;5.18;;;2.70;;
74777;SDS011;63298;53.164;8.610;2023-11-21T12:56:59;5.88;;;2.90;;
74777;SDS011;63298;53.164;8.610;2023-11-21T12:59:25;5.63;;;2.28;;
74777;SDS011;63298;53.164;8.610;2023-11-21T13:01:50;4.60;;;2.17;;
74777;SDS011;63298;53.164;8.610;2023-11-21T13:04:19;3.03;;;2.60;;
74777;SDS011;63298;53.164;8.610;2023-11-21T13:06:44;6.80;;;2.28;;
74777;SDS011;63298;53.164;8.610;2023-11-21T13:09:09;3.25;;;2.75;;
74777;SDS011;63298;53.164;8.610;2023-11-21T13:11:35;5.68;;;2.38;;
74777;SDS011;63298;53.164;8.610;2023-11-21T13:14:01;3.80;;;2.60;;
74777;SDS011;63298;53.164;8.610;2023-11-21T13:16:27;6.20;;;2.25;;
74777;SDS011;63298;53.164;8.610;2023-11-21T13:18:55;15.80;;;2.70;;
74777;SDS011;63298;53.164;8.610;2023-11-21T13:21:23;3.53;;;2.40;;
74777;SDS011;63298;53.164;8.610;2023-11-21T13:23:50;3.45;;;2.50;;
74777;SDS011;63298;53.164;8.610;2023-11-21T13:26:15;2.55;;;2.30;;
74777;SDS011;63298;53.164;8.610;2023-11-21T13:28:40;4.10;;;2.78;;
74777;SDS011;63298;53.164;8.610;2023-11-21T13:31:06;2.85;;;1.98;;
74777;SDS011;63298;53.164;8.610;2023-11-21T13:33:34;3.28;;;2.83;;
74777;SDS011;63298;53.164;8.610;2023-11-21T13:35:59;5.40;;;2.30;;
74777;SDS011;63298;53.164;8.610;2023-11-21T13:38:25;4.00;;;2.45;;
74777;SDS011;63298;53.164;8.610;2023-11-21T13:40:52;3.17;;;2.35;;
74777;SDS011;63298;53.164;8.610;2023-11-21T13:43:19;2.58;;;2.03;;
74777;SDS011;63298;53.164;8.610;2023-11-21T13:45:47;3.90;;;1.90;;
74777;SDS011;63298;53.164;8.610;2023-11-21T13:48:13;2.90;;;2.50;;
74777;SDS011;63298;53.164;8.610;2023-11-21T13:50:40;2.55;;;2.17;;
74777;SDS011;63298;53.164;8.610;2023-11-21T13:53:06;3.05;;;2.70;;
74777;SDS011;63298;53.164;8.610;2023-11-21T13:55:31;4.25;;;1.95;;
74777;SDS011;63298;53.164;8.610;2023-11-21T13:57:57;1.60;;;1.50;;
74777;SDS011;63298;53.164;8.610;2023-11-21T14:00:24;2.25;;;1.42;;
74777;SDS011;63298;53.164;8.610;2023-11-21T14:02:52;1.52;;;1.38;;
74777;SDS011;63298;53.164;8.610;2023-11-21T14:05:20;1.45;;;1.23;;
74777;SDS011;63298;53.164;8.610;2023-11-21T14:07:45;1.33;;;1.20;;
74777;SDS011;63298;53.164;8.610;2023-11-21T14:10:11;2.05;;;1.13;;
74777;SDS011;63298;53.164;8.610;2023-11-21T14:12:39;2.47;;;1.90;;
74777;SDS011;63298;53.164;8.610;2023-11-21T14:15:04;1.35;;;1.33;;
74777;SDS011;63298;53.164;8.610;2023-11-21T14:17:33;1.90;;;1.80;;
74777;SDS011;63298;53.164;8.610;2023-11-21T14:19:58;3.47;;;1.85;;
74777;SDS011;63298;53.164;8.610;2023-11-21T14:22:24;2.30;;;1.50;;
74777;SDS011;63298;53.164;8.610;2023-11-21T14:24:49;2.40;;;1.63;;
74777;SDS011;63298;53.164;8.610;2023-11-21T14:27:15;1.42;;;1.33;;
74777;SDS011;63298;53.164;8.610;2023-11-21T14:29:40;1.90;;;1.77;;
74777;SDS011;63298;53.164;8.610;2023-11-21T14:32:10;1.55;;;1.45;;
74777;SDS011;63298;53.164;8.610;2023-11-21T14:34:35;2.30;;;1.65;;
74777;SDS011;63298;53.164;8.610;2023-11-21T14:37:01;1.20;;;1.20;;
74777;SDS011;63298;53.164;8.610;2023-11-21T14:39:28;2.58;;;1.98;;
74777;SDS011;63298;53.164;8.610;2023-11-21T14:41:57;6.93;;;4.60;;
74777;SDS011;63298;53.164;8.610;2023-11-21T14:44:22;6.55;;;3.40;;
74777;SDS011;63298;53.164;8.610;2023-11-21T14:46:47;7.25;;;5.35;;
74777;SDS011;63298;53.164;8.610;2023-11-21T14:49:13;5.32;;;4.65;;
74777;SDS011;63298;53.164;8.610;2023-11-21T14:51:41;4.70;;;2.70;;
74777;SDS011;63298;53.164;8.610;2023-11-21T14:54:07;1.70;;;1.48;;
74777;SDS011;63298;53.164;8.610;2023-11-21T14:56:32;2.63;;;1.65;;